Terminal Aerodrome Forecast
Issued by NWS

Home | Current Version | Previous Version | Text Only | Print | Product List | Glossary On
Versions: 1 2 3 4 5 6 7 8 9 10 11 12 13 14 15 16 17 18 19 20 21 22 23 24 25 26 27 28
000
FTUS45 KGGW 251130
TAFGDV
TAF
KGDV 251130Z 2512/2612 24011KT P6SM SCT050
     FM251400 25018G27KT P6SM BKN050
     FM251700 26023G32KT P6SM BKN050
     FM260200 29016G24KT P6SM SCT060
     FM260700 29010KT P6SM FEW100=

USA.gov is the U.S. government's official web portal to all federal, state and local government web resources and services.